createdAt,value
2022-07-29T00:00:06.940Z,26.70
2022-07-29T00:03:11.626Z,26.75
2022-07-29T00:06:17.288Z,26.75
2022-07-29T00:09:21.866Z,26.63
2022-07-29T00:12:27.545Z,26.50
2022-07-29T00:15:34.749Z,26.55
2022-07-29T00:18:39.509Z,26.65
2022-07-29T00:21:44.301Z,26.48
2022-07-29T00:24:51.985Z,26.59
2022-07-29T00:27:56.821Z,26.42
2022-07-29T00:31:01.066Z,26.14
2022-07-29T00:34:05.760Z,26.28
2022-07-29T00:37:10.554Z,26.41
2022-07-29T00:40:15.153Z,26.66
2022-07-29T00:43:20.183Z,26.92
2022-07-29T00:46:24.579Z,27.10
2022-07-29T00:49:29.417Z,27.09
2022-07-29T00:52:33.857Z,26.84
2022-07-29T00:55:38.811Z,26.89
2022-07-29T00:58:43.210Z,26.93
2022-07-29T01:01:47.958Z,27.15
2022-07-29T01:04:53.100Z,26.95
2022-07-29T01:07:59.983Z,27.03
2022-07-29T01:11:05.157Z,26.95
2022-07-29T01:14:11.049Z,27.04
2022-07-29T01:17:33.877Z,27.29
2022-07-29T01:21:17.988Z,27.46
2022-07-29T01:24:22.588Z,27.69
2022-07-29T01:27:45.798Z,27.58
2022-07-29T01:30:53.788Z,27.54
2022-07-29T01:34:03.613Z,27.38
2022-07-29T01:37:31.372Z,27.51
2022-07-29T01:40:38.294Z,27.67
2022-07-29T01:43:58.369Z,27.70
2022-07-29T01:47:08.343Z,28.56
2022-07-29T01:50:18.411Z,28.76
2022-07-29T01:53:55.148Z,28.73
2022-07-29T01:57:02.120Z,28.46
2022-07-29T02:00:07.981Z,28.76
2022-07-29T02:03:20.935Z,28.93
2022-07-29T02:06:27.807Z,28.88
2022-07-29T02:09:34.051Z,29.51
2022-07-29T02:12:40.219Z,30.27
2022-07-29T02:16:09.458Z,30.61
2022-07-29T02:19:16.405Z,30.52
2022-07-29T02:22:22.036Z,30.68
2022-07-29T02:25:38.043Z,30.85
2022-07-29T02:28:43.533Z,30.77
2022-07-29T02:31:50.417Z,30.53
2022-07-29T02:34:56.123Z,30.67
2022-07-29T02:38:19.290Z,30.86
2022-07-29T02:41:31.959Z,30.97
2022-07-29T02:44:36.851Z,31.15
2022-07-29T02:47:46.836Z,31.12
2022-07-29T02:51:03.920Z,31.31
2022-07-29T02:54:12.911Z,31.32
2022-07-29T02:57:30.362Z,30.83
2022-07-29T03:00:39.859Z,30.88
2022-07-29T03:03:47.021Z,30.81
2022-07-29T03:06:55.120Z,30.98
2022-07-29T03:10:01.232Z,30.90
2022-07-29T03:13:09.703Z,30.92
2022-07-29T03:16:15.922Z,30.92
2022-07-29T03:19:22.087Z,31.09
2022-07-29T03:22:27.346Z,30.89
2022-07-29T03:25:32.185Z,30.88
2022-07-29T03:28:36.786Z,30.98
2022-07-29T03:31:41.569Z,30.60
2022-07-29T03:34:48.417Z,30.71
2022-07-29T03:37:52.607Z,30.73
2022-07-29T03:41:03.481Z,30.63
2022-07-29T03:44:10.311Z,30.71
2022-07-29T03:47:17.290Z,30.74
2022-07-29T03:50:24.346Z,30.82
2022-07-29T03:53:28.987Z,30.67
2022-07-29T03:56:35.124Z,30.57
2022-07-29T03:59:41.158Z,30.80
2022-07-29T04:02:52.937Z,30.33
2022-07-29T04:06:02.029Z,30.55
2022-07-29T04:09:06.716Z,30.56
2022-07-29T04:12:14.572Z,30.89
2022-07-29T04:15:18.851Z,30.78
2022-07-29T04:18:23.866Z,31.11
2022-07-29T04:21:28.599Z,31.01
2022-07-29T04:24:33.130Z,30.79
2022-07-29T04:27:37.830Z,30.91
2022-07-29T04:30:42.355Z,30.79
2022-07-29T04:33:47.012Z,30.81
2022-07-29T04:36:51.475Z,30.51
2022-07-29T04:39:56.366Z,30.31
2022-07-29T04:43:06.103Z,30.24
2022-07-29T04:46:10.769Z,30.47
2022-07-29T04:49:15.684Z,30.65
2022-07-29T04:52:20.508Z,30.52
2022-07-29T04:55:25.064Z,30.67
2022-07-29T04:58:30.713Z,30.60
2022-07-29T05:01:35.453Z,30.19
2022-07-29T05:04:40.306Z,30.40
2022-07-29T05:07:44.937Z,30.64
2022-07-29T05:10:49.760Z,30.33
2022-07-29T05:13:54.345Z,30.19
2022-07-29T05:16:59.052Z,30.31
2022-07-29T05:20:03.718Z,30.53
2022-07-29T05:23:08.025Z,30.34
2022-07-29T05:26:13.884Z,30.39
2022-07-29T05:29:43.925Z,30.37
2022-07-29T05:32:43.375Z,30.55
2022-07-29T05:35:50.649Z,30.60
2022-07-29T05:38:55.299Z,30.55
2022-07-29T05:41:59.469Z,30.02
2022-07-29T05:45:04.982Z,30.30
2022-07-29T05:48:09.646Z,30.55
2022-07-29T05:51:14.689Z,30.68
2022-07-29T05:54:19.358Z,30.65
2022-07-29T05:57:24.833Z,30.39
2022-07-29T06:00:29.963Z,30.40
2022-07-29T06:03:34.709Z,30.49
2022-07-29T06:06:39.554Z,30.26
2022-07-29T06:09:44.627Z,29.93
2022-07-29T06:12:50.322Z,29.98
2022-07-29T06:15:54.990Z,30.00
2022-07-29T06:18:59.334Z,29.92
2022-07-29T06:22:04.005Z,29.93
2022-07-29T06:25:09.659Z,30.10
2022-07-29T06:28:15.801Z,30.18
2022-07-29T06:31:20.703Z,29.88
2022-07-29T06:34:25.594Z,29.85
2022-07-29T06:37:30.392Z,29.82
2022-07-29T06:40:55.972Z,29.64
2022-07-29T06:44:01.087Z,29.37
2022-07-29T06:47:05.650Z,29.25
2022-07-29T06:50:13.643Z,29.25
2022-07-29T06:53:19.409Z,29.18
2022-07-29T06:56:24.181Z,29.30
2022-07-29T06:59:35.040Z,29.12
2022-07-29T07:02:40.141Z,29.42
2022-07-29T07:05:44.620Z,29.28
2022-07-29T07:08:49.256Z,29.31
2022-07-29T07:11:54.030Z,29.42
2022-07-29T07:14:58.480Z,29.53
2022-07-29T07:18:02.916Z,29.49
2022-07-29T07:21:07.711Z,29.24
2022-07-29T07:24:12.585Z,29.38
2022-07-29T07:27:17.515Z,29.41
2022-07-29T07:30:22.766Z,29.31
2022-07-29T07:33:27.473Z,29.29
2022-07-29T07:36:31.877Z,29.26
2022-07-29T07:39:36.593Z,29.43
2022-07-29T07:42:41.339Z,29.29
2022-07-29T07:45:47.773Z,29.36
2022-07-29T07:48:54.191Z,29.26
2022-07-29T07:51:59.149Z,29.23
2022-07-29T07:55:03.737Z,29.09
2022-07-29T07:58:08.290Z,29.03
2022-07-29T08:01:12.995Z,28.83
2022-07-29T08:04:20.902Z,28.80
2022-07-29T08:07:28.251Z,28.73
2022-07-29T08:10:51.322Z,28.48
2022-07-29T08:13:55.894Z,28.34
2022-07-29T08:17:00.713Z,28.14
2022-07-29T08:20:06.667Z,28.32
2022-07-29T08:23:11.551Z,28.39
2022-07-29T08:26:16.355Z,28.28
2022-07-29T08:29:21.028Z,28.31
2022-07-29T08:32:50.791Z,28.40
2022-07-29T08:35:51.931Z,28.19
2022-07-29T08:38:56.651Z,28.33
2022-07-29T08:42:02.094Z,28.24
2022-07-29T08:45:07.921Z,28.16
2022-07-29T08:51:59.417Z,27.86
2022-07-29T08:55:05.348Z,27.91
2022-07-29T08:58:11.039Z,28.01
2022-07-29T09:01:35.929Z,27.99
2022-07-29T09:04:41.026Z,27.87
2022-07-29T09:07:49.641Z,28.03
2022-07-29T09:10:55.139Z,28.08
2022-07-29T09:13:59.465Z,27.99
2022-07-29T09:17:04.276Z,27.97
2022-07-29T09:20:19.135Z,28.03
2022-07-29T09:23:25.111Z,27.84
2022-07-29T09:26:33.721Z,27.91
2022-07-29T09:29:40.835Z,28.06
2022-07-29T09:33:05.521Z,27.87
2022-07-29T09:36:11.613Z,27.80
2022-07-29T09:39:17.831Z,27.87
2022-07-29T09:42:34.730Z,27.74
2022-07-29T09:45:40.002Z,27.61
2022-07-29T09:48:45.436Z,27.46
2022-07-29T09:51:50.297Z,27.07
2022-07-29T09:54:55.965Z,27.29
2022-07-29T09:58:23.537Z,27.24
2022-07-29T10:01:31.658Z,27.06
2022-07-29T10:04:43.602Z,26.87
2022-07-29T10:07:57.259Z,26.85
2022-07-29T10:11:16.256Z,26.72
2022-07-29T10:14:20.864Z,26.61
2022-07-29T10:17:25.371Z,26.59
2022-07-29T10:20:30.072Z,26.51
2022-07-29T10:23:47.075Z,26.44
2022-07-29T10:26:52.297Z,26.30
2022-07-29T10:29:57.054Z,26.41
2022-07-29T10:33:40.693Z,26.30
2022-07-29T10:37:10.781Z,26.16
2022-07-29T10:40:45.218Z,25.91
2022-07-29T10:43:52.222Z,25.92
2022-07-29T10:46:57.452Z,25.82
2022-07-29T10:50:06.998Z,25.78
2022-07-29T10:53:11.179Z,25.70
2022-07-29T10:56:29.988Z,25.69
2022-07-29T10:59:36.288Z,25.82
2022-07-29T11:02:43.546Z,25.74
2022-07-29T11:05:59.538Z,25.52
2022-07-29T11:09:37.682Z,25.41
2022-07-29T11:12:45.957Z,25.41
2022-07-29T11:16:00.546Z,25.41
2022-07-29T11:19:14.644Z,25.46
2022-07-29T11:22:35.871Z,25.23
2022-07-29T11:29:26.584Z,25.26
2022-07-29T11:32:44.933Z,25.14
2022-07-29T11:36:16.959Z,25.05
2022-07-29T11:39:36.917Z,24.96
2022-07-29T11:42:44.454Z,24.97
2022-07-29T11:45:49.167Z,24.93
2022-07-29T11:48:54.555Z,25.01
2022-07-29T11:52:03.285Z,25.03
2022-07-29T11:55:09.937Z,24.87
2022-07-29T11:58:15.277Z,24.96
2022-07-29T12:01:20.315Z,25.05
2022-07-29T12:04:25.415Z,25.19
2022-07-29T12:07:35.882Z,25.06
2022-07-29T12:10:40.861Z,25.03
2022-07-29T12:13:46.026Z,25.08
2022-07-29T12:16:53.999Z,25.13
2022-07-29T12:20:02.431Z,25.09
2022-07-29T12:23:09.917Z,25.20
2022-07-29T12:26:25.313Z,25.19
2022-07-29T12:29:35.137Z,25.15
2022-07-29T12:32:43.442Z,25.26
2022-07-29T12:36:06.240Z,25.17
2022-07-29T12:39:13.552Z,25.26
2022-07-29T12:42:19.877Z,25.27
2022-07-29T12:45:31.449Z,25.33
2022-07-29T12:48:40.826Z,25.36
2022-07-29T12:51:45.330Z,25.40
2022-07-29T12:54:50.186Z,25.42
2022-07-29T12:57:56.190Z,25.48
2022-07-29T13:01:19.016Z,25.30
2022-07-29T13:04:28.897Z,25.39
2022-07-29T13:07:54.595Z,25.28
2022-07-29T13:11:01.968Z,25.26
2022-07-29T13:14:07.153Z,25.32
2022-07-29T13:17:15.879Z,25.34
2022-07-29T13:20:20.858Z,25.25
2022-07-29T13:23:24.980Z,25.09
2022-07-29T13:26:29.597Z,25.09
2022-07-29T13:29:34.216Z,25.10
2022-07-29T13:32:39.544Z,24.87
2022-07-29T13:35:43.512Z,25.17
2022-07-29T13:38:48.134Z,25.07
2022-07-29T13:41:52.409Z,25.11
2022-07-29T13:44:56.836Z,25.04
2022-07-29T13:48:01.094Z,25.01
2022-07-29T13:51:05.762Z,25.08
2022-07-29T13:54:10.020Z,24.94
2022-07-29T13:57:15.618Z,24.91
2022-07-29T14:00:21.036Z,24.89
2022-07-29T14:03:26.336Z,24.75
2022-07-29T14:06:31.359Z,24.80
2022-07-29T14:09:41.038Z,24.58
2022-07-29T14:12:45.963Z,24.57
2022-07-29T14:15:50.425Z,24.60
2022-07-29T14:18:54.887Z,24.62
2022-07-29T14:21:59.307Z,24.62
2022-07-29T14:25:08.695Z,24.55
2022-07-29T14:28:19.420Z,24.56
2022-07-29T14:31:24.032Z,24.55
2022-07-29T14:34:28.145Z,24.56
2022-07-29T14:37:39.897Z,24.55
2022-07-29T14:40:44.832Z,24.60
2022-07-29T14:43:49.253Z,24.63
2022-07-29T14:46:53.537Z,24.72
2022-07-29T14:49:57.883Z,24.65
2022-07-29T14:53:02.755Z,24.75
2022-07-29T14:56:34.277Z,24.56
2022-07-29T14:59:31.612Z,24.65
2022-07-29T15:03:00.488Z,24.72
2022-07-29T15:06:00.494Z,24.63
2022-07-29T15:09:05.723Z,24.62
2022-07-29T15:12:12.258Z,24.66
2022-07-29T15:15:16.772Z,24.56
2022-07-29T15:18:25.747Z,24.52
2022-07-29T15:21:30.392Z,24.60
2022-07-29T15:24:34.929Z,24.57
2022-07-29T15:27:39.095Z,24.47
2022-07-29T15:30:43.723Z,24.49
2022-07-29T15:33:48.060Z,24.38
2022-07-29T15:36:53.739Z,24.36
2022-07-29T15:40:00.081Z,24.41
2022-07-29T15:43:10.256Z,24.40
2022-07-29T15:46:37.801Z,24.45
2022-07-29T15:49:48.531Z,24.47
2022-07-29T15:52:53.529Z,24.55
2022-07-29T15:55:57.799Z,24.62
2022-07-29T15:59:02.431Z,24.60
2022-07-29T16:02:06.898Z,24.59
2022-07-29T16:05:11.621Z,24.62
2022-07-29T16:08:15.693Z,24.42
2022-07-29T16:11:19.853Z,24.48
2022-07-29T16:14:24.388Z,24.53
2022-07-29T16:17:32.521Z,24.68
2022-07-29T16:20:37.337Z,24.80
2022-07-29T16:23:42.489Z,24.76
2022-07-29T16:26:46.817Z,24.53
2022-07-29T16:29:51.354Z,24.59
2022-07-29T16:32:55.606Z,24.61
2022-07-29T16:35:59.742Z,24.68
2022-07-29T16:39:06.556Z,24.59
2022-07-29T16:42:21.239Z,24.61
2022-07-29T16:45:45.812Z,24.65
2022-07-29T16:48:50.618Z,24.56
2022-07-29T16:51:55.603Z,24.59
2022-07-29T16:54:59.452Z,24.40
2022-07-29T16:58:03.571Z,24.38
2022-07-29T17:01:07.961Z,24.38
2022-07-29T17:04:15.729Z,24.51
2022-07-29T17:07:20.215Z,24.54
2022-07-29T17:10:25.431Z,24.61
2022-07-29T17:13:32.090Z,24.66
2022-07-29T17:16:36.609Z,24.62
2022-07-29T17:19:41.283Z,24.50
2022-07-29T17:22:45.409Z,24.53
2022-07-29T17:25:50.072Z,24.44
2022-07-29T17:28:54.604Z,24.35
2022-07-29T17:32:00.455Z,24.31
2022-07-29T17:35:24.797Z,24.48
2022-07-29T17:38:29.113Z,24.49
2022-07-29T17:41:33.709Z,24.38
2022-07-29T17:44:38.716Z,24.38
2022-07-29T17:47:42.936Z,24.36
2022-07-29T17:50:48.802Z,24.45
2022-07-29T17:53:53.588Z,24.39
2022-07-29T17:56:58.016Z,24.33
2022-07-29T18:00:02.375Z,24.39
2022-07-29T18:03:08.428Z,24.30
2022-07-29T18:06:13.084Z,24.33
2022-07-29T18:09:17.190Z,24.14
2022-07-29T18:12:21.620Z,24.22
2022-07-29T18:15:26.015Z,24.38
2022-07-29T18:18:30.363Z,24.26
2022-07-29T18:21:43.350Z,24.19
2022-07-29T18:24:56.705Z,24.03
2022-07-29T18:28:01.164Z,24.06
2022-07-29T18:31:06.012Z,23.98
2022-07-29T18:34:10.688Z,24.02
2022-07-29T18:37:14.714Z,23.84
2022-07-29T18:40:21.550Z,23.85
2022-07-29T18:43:25.859Z,24.01
2022-07-29T18:46:30.126Z,23.95
2022-07-29T18:49:34.763Z,24.09
2022-07-29T18:52:39.111Z,23.85
2022-07-29T18:55:43.144Z,23.79
2022-07-29T18:58:47.910Z,23.52
2022-07-29T19:01:52.505Z,23.56
2022-07-29T19:04:57.599Z,23.53
2022-07-29T19:08:01.650Z,23.39
2022-07-29T19:11:06.601Z,23.53
2022-07-29T19:14:11.208Z,23.50
2022-07-29T19:17:15.609Z,23.38
2022-07-29T19:20:19.982Z,23.45
2022-07-29T19:23:24.237Z,23.27
2022-07-29T19:26:28.432Z,23.42
2022-07-29T19:29:33.762Z,23.38
2022-07-29T19:32:38.410Z,23.10
2022-07-29T19:35:42.664Z,23.00
2022-07-29T19:38:46.885Z,23.24
2022-07-29T19:41:51.161Z,23.09
2022-07-29T19:45:03.154Z,23.13
2022-07-29T19:48:07.895Z,23.19
2022-07-29T19:51:12.218Z,23.05
2022-07-29T19:54:18.966Z,23.06
2022-07-29T19:57:24.108Z,23.20
2022-07-29T20:00:28.414Z,23.13
2022-07-29T20:03:34.646Z,23.12
2022-07-29T20:06:38.771Z,23.13
2022-07-29T20:09:43.504Z,23.20
2022-07-29T20:12:47.880Z,23.22
2022-07-29T20:15:56.792Z,23.20
2022-07-29T20:19:00.900Z,23.34
2022-07-29T20:22:05.079Z,23.24
2022-07-29T20:25:12.721Z,23.29
2022-07-29T20:28:16.901Z,23.30
2022-07-29T20:31:21.462Z,23.32
2022-07-29T20:34:25.908Z,23.21
2022-07-29T20:37:30.108Z,23.31
2022-07-29T20:40:36.654Z,23.35
2022-07-29T20:43:40.617Z,23.28
2022-07-29T20:46:45.068Z,23.30
2022-07-29T20:49:49.608Z,23.22
2022-07-29T20:52:54.556Z,23.28
2022-07-29T20:55:58.821Z,23.37
2022-07-29T20:59:03.605Z,23.47
2022-07-29T21:02:07.751Z,23.52
2022-07-29T21:05:14.310Z,23.58
2022-07-29T21:08:18.570Z,23.59
2022-07-29T21:11:43.174Z,23.59
2022-07-29T21:14:50.348Z,23.60
2022-07-29T21:18:01.509Z,23.53
2022-07-29T21:21:06.589Z,23.68
2022-07-29T21:24:12.099Z,23.63
2022-07-29T21:27:35.287Z,23.70
2022-07-29T21:30:42.960Z,23.74
2022-07-29T21:33:48.268Z,23.69
2022-07-29T21:36:52.964Z,23.56
2022-07-29T21:39:57.179Z,23.74
2022-07-29T21:43:01.613Z,23.57
2022-07-29T21:46:06.152Z,23.64
2022-07-29T21:49:10.860Z,23.72
2022-07-29T21:52:15.923Z,23.77
2022-07-29T21:55:22.457Z,23.95
2022-07-29T21:58:28.993Z,23.95
2022-07-29T22:01:39.153Z,24.17
2022-07-29T22:04:43.863Z,24.38
2022-07-29T22:07:56.208Z,24.37
2022-07-29T22:11:01.362Z,24.37
2022-07-29T22:14:08.039Z,24.54
2022-07-29T22:17:12.275Z,24.76
2022-07-29T22:20:16.365Z,24.85
2022-07-29T22:23:20.788Z,24.73
2022-07-29T22:26:25.429Z,24.84
2022-07-29T22:29:29.865Z,24.81
2022-07-29T22:32:34.616Z,24.74
2022-07-29T22:35:39.463Z,24.84
2022-07-29T22:38:43.745Z,24.85
2022-07-29T22:41:48.533Z,24.94
2022-07-29T22:44:52.490Z,24.96
2022-07-29T22:47:59.355Z,25.23
2022-07-29T22:51:04.233Z,25.61
2022-07-29T22:54:09.023Z,25.74
2022-07-29T22:57:13.351Z,25.64
2022-07-29T23:00:17.728Z,25.74
2022-07-29T23:03:22.833Z,25.61
2022-07-29T23:06:27.041Z,25.64
2022-07-29T23:09:31.329Z,25.81
2022-07-29T23:12:36.102Z,25.96
2022-07-29T23:15:40.506Z,25.91
2022-07-29T23:18:45.379Z,25.98
2022-07-29T23:21:49.552Z,26.00
2022-07-29T23:24:54.010Z,25.90
2022-07-29T23:27:58.190Z,25.98
2022-07-29T23:31:02.916Z,26.23
2022-07-29T23:34:07.067Z,26.27
2022-07-29T23:37:11.606Z,26.20
2022-07-29T23:40:16.445Z,26.00
2022-07-29T23:43:20.877Z,26.24
2022-07-29T23:46:25.515Z,26.14
2022-07-29T23:49:29.810Z,26.33
2022-07-29T23:52:34.175Z,26.88
2022-07-29T23:55:40.339Z,27.32
2022-07-29T23:58:44.888Z,27.06
